createdAt,value
2018-08-28T00:04:15.082Z,18.68
2018-08-28T00:09:18.102Z,18.74
2018-08-28T00:14:21.209Z,18.78
2018-08-28T00:19:24.282Z,18.82
2018-08-28T00:24:27.334Z,18.93
2018-08-28T00:29:30.422Z,18.98
2018-08-28T00:34:33.638Z,19.03
2018-08-28T00:39:36.743Z,19.06
2018-08-28T00:44:39.818Z,19.08
2018-08-28T00:49:42.877Z,19.10
2018-08-28T00:54:46.023Z,19.11
2018-08-28T00:59:49.054Z,19.12
2018-08-28T01:04:52.139Z,19.10
2018-08-28T01:09:55.205Z,19.09
2018-08-28T01:14:58.222Z,19.10
2018-08-28T01:20:01.291Z,19.12
2018-08-28T01:25:04.861Z,19.08
2018-08-28T01:30:07.982Z,19.07
2018-08-28T01:35:11.026Z,19.08
2018-08-28T01:40:14.058Z,19.08
2018-08-28T01:45:17.081Z,19.10
2018-08-28T01:50:20.138Z,19.12
2018-08-28T01:55:23.163Z,19.12
2018-08-28T02:00:26.166Z,19.12
2018-08-28T02:05:29.246Z,19.12
2018-08-28T02:10:32.262Z,19.12
2018-08-28T02:15:35.297Z,19.13
2018-08-28T02:20:38.328Z,19.12
2018-08-28T02:25:41.362Z,19.14
2018-08-28T02:30:44.380Z,19.12
2018-08-28T02:35:47.406Z,19.14
2018-08-28T02:40:50.439Z,19.13
2018-08-28T02:45:53.484Z,19.12
2018-08-28T02:50:56.525Z,19.12
2018-08-28T02:55:59.614Z,19.12
2018-08-28T03:01:02.609Z,19.09
2018-08-28T03:06:05.772Z,19.10
2018-08-28T03:11:09.226Z,19.09
2018-08-28T03:16:12.585Z,19.08
2018-08-28T03:21:16.009Z,19.08
2018-08-28T03:26:19.389Z,19.08
2018-08-28T03:31:22.826Z,19.10
2018-08-28T03:36:26.279Z,19.13
2018-08-28T03:41:29.774Z,19.10
2018-08-28T03:46:33.145Z,19.19
2018-08-28T03:51:36.566Z,19.13
2018-08-28T03:56:39.953Z,19.13
2018-08-28T04:01:43.384Z,19.12
2018-08-28T04:06:46.830Z,19.06
2018-08-28T04:11:50.204Z,19.05
2018-08-28T04:16:53.610Z,19.06
2018-08-28T04:21:56.979Z,19.07
2018-08-28T04:27:00.334Z,19.07
2018-08-28T04:32:03.748Z,19.09
2018-08-28T04:37:07.246Z,19.08
2018-08-28T04:42:10.645Z,19.09
2018-08-28T04:47:13.766Z,19.09
2018-08-28T04:52:17.436Z,19.10
2018-08-28T04:57:20.584Z,19.15
2018-08-28T05:02:28.714Z,19.18
2018-08-28T05:07:31.930Z,19.25
2018-08-28T05:12:35.002Z,19.33
2018-08-28T05:17:38.093Z,19.42
2018-08-28T05:22:41.174Z,19.51
2018-08-28T05:27:44.291Z,19.60
2018-08-28T05:32:47.363Z,19.69
2018-08-28T05:37:50.438Z,19.81
2018-08-28T05:42:54.247Z,19.94
2018-08-28T05:47:57.273Z,20.07
2018-08-28T05:53:00.332Z,20.21
2018-08-28T05:58:03.419Z,20.32
2018-08-28T06:03:07.058Z,20.42
2018-08-28T06:08:10.171Z,20.56
2018-08-28T06:13:13.418Z,20.68
2018-08-28T06:18:16.510Z,20.84
2018-08-28T06:23:19.578Z,21.03
2018-08-28T06:28:22.677Z,21.18
2018-08-28T06:33:25.824Z,21.39
2018-08-28T06:38:28.875Z,21.56
2018-08-28T06:43:32.051Z,21.58
2018-08-28T06:48:35.211Z,21.59
2018-08-28T06:53:38.310Z,21.79
2018-08-28T06:58:41.412Z,21.85
2018-08-28T07:03:44.508Z,21.95
2018-08-28T07:08:47.606Z,22.12
2018-08-28T07:13:50.762Z,22.26
2018-08-28T07:18:53.894Z,22.44
2018-08-28T07:23:57.094Z,22.80
2018-08-28T07:29:00.122Z,22.97
2018-08-28T07:34:03.235Z,23.18
2018-08-28T07:39:06.940Z,23.05
2018-08-28T07:44:09.983Z,23.16
2018-08-28T07:49:13.370Z,22.95
2018-08-28T07:54:16.426Z,22.92
2018-08-28T07:59:19.482Z,23.07
2018-08-28T08:04:22.538Z,23.30
2018-08-28T08:09:25.574Z,23.67
2018-08-28T08:14:28.588Z,24.21
2018-08-28T08:19:31.673Z,24.42
2018-08-28T08:24:34.726Z,24.61
2018-08-28T08:29:37.809Z,24.92
2018-08-28T08:34:40.843Z,24.88
2018-08-28T08:39:43.897Z,24.96
2018-08-28T08:44:46.961Z,25.01
2018-08-28T08:49:50.062Z,25.02
2018-08-28T08:54:53.185Z,24.97
2018-08-28T08:59:56.205Z,25.29
2018-08-28T09:04:59.247Z,25.61
2018-08-28T09:10:02.344Z,25.60
2018-08-28T09:15:05.615Z,25.40
2018-08-28T09:20:08.734Z,25.38
2018-08-28T09:25:11.863Z,25.37
2018-08-28T09:30:14.935Z,25.81
2018-08-28T09:35:17.987Z,26.18
2018-08-28T09:40:20.990Z,26.31
2018-08-28T09:45:24.022Z,26.52
2018-08-28T09:50:27.163Z,26.76
2018-08-28T09:55:30.218Z,27.00
2018-08-28T10:00:37.834Z,27.00
2018-08-28T10:05:40.965Z,26.45
2018-08-28T10:10:44.054Z,26.13
2018-08-28T10:15:47.101Z,26.19
2018-08-28T10:20:50.118Z,26.28
2018-08-28T10:25:53.151Z,26.82
2018-08-28T10:30:56.185Z,27.48
2018-08-28T10:35:59.236Z,27.66
2018-08-28T10:41:02.382Z,27.72
2018-08-28T10:46:05.760Z,27.74
2018-08-28T10:51:08.765Z,27.63
2018-08-28T10:56:11.835Z,27.19
2018-08-28T11:01:14.885Z,26.80
2018-08-28T11:06:17.939Z,26.55
2018-08-28T11:11:20.957Z,26.38
2018-08-28T11:16:23.997Z,25.95
2018-08-28T11:21:27.061Z,25.65
2018-08-28T11:26:30.215Z,25.32
2018-08-28T11:31:33.243Z,25.07
2018-08-28T11:36:36.313Z,24.98
2018-08-28T11:41:39.550Z,24.93
2018-08-28T11:46:43.658Z,24.77
2018-08-28T11:51:47.610Z,24.65
2018-08-28T11:56:51.045Z,24.73
2018-08-28T12:01:56.048Z,24.93
2018-08-28T12:07:00.401Z,24.99
2018-08-28T12:12:04.159Z,25.03
2018-08-28T12:17:08.096Z,25.04
2018-08-28T12:22:12.284Z,25.01
2018-08-28T12:27:16.413Z,25.05
2018-08-28T12:32:20.229Z,24.98
2018-08-28T12:37:24.304Z,25.03
2018-08-28T12:42:27.963Z,25.05
2018-08-28T12:47:32.370Z,25.11
2018-08-28T12:52:36.614Z,25.34
2018-08-28T12:57:39.892Z,25.60
2018-08-28T13:02:44.119Z,26.00
2018-08-28T13:07:47.876Z,26.16
2018-08-28T13:12:51.399Z,26.72
2018-08-28T13:17:54.454Z,26.69
2018-08-28T13:22:57.506Z,26.76
2018-08-28T13:28:00.588Z,26.52
2018-08-28T13:33:03.679Z,26.53
2018-08-28T13:38:06.747Z,26.75
2018-08-28T13:43:09.823Z,27.05
2018-08-28T13:48:13.006Z,27.60
2018-08-28T13:53:16.030Z,27.66
2018-08-28T13:58:19.062Z,28.02
2018-08-28T14:03:22.076Z,28.20
2018-08-28T14:08:25.088Z,27.54
2018-08-28T14:13:28.155Z,27.20
2018-08-28T14:18:31.451Z,27.30
2018-08-28T14:23:34.675Z,26.94
2018-08-28T14:28:37.711Z,26.90
2018-08-28T14:33:40.785Z,26.81
2018-08-28T14:38:43.936Z,26.84
2018-08-28T14:43:47.038Z,27.08
2018-08-28T14:48:50.225Z,27.33
2018-08-28T14:53:53.279Z,26.84
2018-08-28T14:58:56.649Z,26.54
2018-08-28T15:03:59.698Z,26.53
2018-08-28T15:09:02.863Z,26.84
2018-08-28T15:14:06.537Z,27.01
2018-08-28T15:19:10.109Z,26.72
2018-08-28T15:24:13.125Z,26.86
2018-08-28T15:29:16.166Z,27.01
2018-08-28T15:34:19.274Z,26.89
2018-08-28T15:39:22.331Z,26.77
2018-08-28T15:44:25.385Z,26.53
2018-08-28T15:49:28.527Z,26.52
2018-08-28T15:54:31.706Z,26.63
2018-08-28T15:59:34.767Z,26.63
2018-08-28T16:04:37.862Z,26.51
2018-08-28T16:09:40.906Z,26.60
2018-08-28T16:14:45.178Z,26.53
2018-08-28T16:19:48.257Z,26.42
2018-08-28T16:24:51.417Z,26.54
2018-08-28T16:29:54.998Z,26.64
2018-08-28T16:34:58.152Z,26.40
2018-08-28T16:40:01.211Z,25.65
2018-08-28T16:45:04.358Z,26.28
2018-08-28T16:50:08.387Z,26.22
2018-08-28T16:55:11.737Z,26.17
2018-08-28T17:00:14.889Z,26.01
2018-08-28T17:05:17.946Z,25.89
2018-08-28T17:10:20.993Z,25.67
2018-08-28T17:15:24.018Z,25.53
2018-08-28T17:20:27.045Z,25.44
2018-08-28T17:25:30.089Z,25.28
2018-08-28T17:30:33.229Z,25.23
2018-08-28T17:35:36.378Z,25.02
2018-08-28T17:40:39.500Z,24.74
2018-08-28T17:45:42.649Z,24.33
2018-08-28T17:50:45.673Z,24.33
2018-08-28T18:06:28.026Z,23.62
2018-08-28T18:11:31.925Z,23.46
2018-08-28T18:16:37.155Z,23.28
2018-08-28T18:21:51.261Z,23.09
2018-08-28T18:27:08.135Z,22.86
2018-08-28T18:32:17.186Z,22.73
2018-08-28T18:37:20.219Z,22.60
2018-08-28T18:42:26.746Z,22.47
2018-08-28T18:47:35.358Z,22.37
2018-08-28T18:52:39.609Z,22.04
2018-08-28T18:57:42.709Z,21.88
2018-08-28T19:02:46.110Z,21.83
2018-08-28T19:08:04.655Z,21.71
2018-08-28T19:18:48.443Z,21.38
2018-08-28T19:24:05.187Z,21.32
2018-08-28T19:29:46.696Z,21.11
2018-08-28T19:35:12.067Z,20.96
2018-08-28T19:40:26.611Z,21.00
2018-08-28T19:45:43.512Z,21.06
2018-08-28T19:56:21.722Z,20.81
2018-08-28T20:01:38.378Z,20.83
2018-08-28T20:06:53.430Z,20.76
2018-08-28T20:11:56.625Z,20.62
2018-08-28T20:16:59.772Z,20.60
2018-08-28T20:22:02.798Z,20.62
2018-08-28T20:27:06.424Z,20.56
2018-08-28T20:32:09.503Z,20.47
2018-08-28T20:37:12.613Z,20.43
2018-08-28T20:42:15.633Z,20.43
2018-08-28T20:47:18.667Z,20.41
2018-08-28T20:52:21.661Z,20.39
2018-08-28T20:57:25.405Z,20.30
2018-08-28T21:02:28.417Z,20.21
2018-08-28T21:07:31.509Z,20.22
2018-08-28T21:12:34.586Z,20.13
2018-08-28T21:17:37.708Z,20.07
2018-08-28T21:22:40.693Z,19.98
2018-08-28T21:27:43.774Z,19.89
2018-08-28T21:32:46.809Z,19.84
2018-08-28T21:37:49.849Z,19.76
2018-08-28T21:42:52.865Z,19.74
2018-08-28T21:47:56.215Z,19.63
2018-08-28T21:52:59.276Z,19.63
2018-08-28T21:58:02.318Z,19.56
2018-08-28T22:03:06.742Z,19.54
2018-08-28T22:08:09.809Z,19.54
2018-08-28T22:13:12.980Z,19.46
2018-08-28T22:18:16.077Z,19.48
2018-08-28T22:23:19.113Z,19.42
2018-08-28T22:28:22.117Z,19.26
2018-08-28T22:33:25.114Z,19.29
2018-08-28T22:38:28.133Z,19.27
2018-08-28T22:43:31.174Z,19.22
2018-08-28T22:48:34.210Z,19.19
2018-08-28T22:53:37.193Z,19.09
2018-08-28T22:58:40.258Z,19.14
2018-08-28T23:03:43.269Z,19.07
2018-08-28T23:08:46.282Z,19.11
2018-08-28T23:13:49.281Z,19.09
2018-08-28T23:18:52.273Z,19.10
2018-08-28T23:23:55.341Z,19.13
2018-08-28T23:28:58.439Z,19.13
2018-08-28T23:34:01.685Z,19.10
2018-08-28T23:39:06.117Z,18.99
2018-08-28T23:44:09.117Z,18.82
2018-08-28T23:49:12.114Z,18.73
2018-08-28T23:54:15.121Z,18.62
2018-08-28T23:59:18.114Z,18.62
